Time;durP1;ratioP1;P1;durP2;ratioP2;P2;SDS_P1;SDS_P2;PMS_P1;PMS_P2;Temp;Humidity;BMP_temperature;BMP_pressure;BME280_temperature;BME280_humidity;BME280_pressure;Samples;Min_cycle;Max_cycle;Signal;HPM_P1;HPM_P2
2022/10/15 00:01:40;;;;;;;49.58;10.52;;;9.00;99.90;;;;;;4982961;28;20033;-96
2022/10/15 00:04:09;;;;;;;24.17;9.65;;;9.00;99.90;;;;;;4979704;28;20034;-94
2022/10/15 00:06:35;;;;;;;23.08;9.38;;;9.00;99.90;;;;;;4994649;28;20034;-94
2022/10/15 00:09:01;;;;;;;17.00;8.88;;;9.00;99.90;;;;;;4980391;28;20385;-95
2022/10/15 00:11:28;;;;;;;19.70;10.52;;;9.00;99.90;;;;;;4979694;28;20034;-94
2022/10/15 00:13:55;;;;;;;32.13;10.57;;;9.00;99.90;;;;;;4979617;28;20030;-96
2022/10/15 00:16:25;;;;;;;22.52;11.07;;;9.00;99.90;;;;;;4978856;28;20018;-94
2022/10/15 00:18:53;;;;;;;23.60;10.38;;;9.00;99.90;;;;;;4980146;28;20100;-96
2022/10/15 00:21:20;;;;;;;19.38;10.13;;;9.00;99.90;;;;;;4980485;28;20057;-95
2022/10/15 00:23:47;;;;;;;17.58;9.85;;;9.00;99.90;;;;;;5001930;28;20034;-95
2022/10/15 00:26:16;;;;;;;17.70;9.85;;;9.00;99.90;;;;;;4984449;28;20096;-94
2022/10/15 00:28:42;;;;;;;16.20;9.38;;;9.10;99.90;;;;;;4998354;28;20034;-96
2022/10/15 00:31:10;;;;;;;17.25;10.23;;;9.10;99.90;;;;;;4979142;28;20165;-95
2022/10/15 00:33:36;;;;;;;16.10;9.82;;;9.10;99.90;;;;;;4980434;28;20030;-95
2022/10/15 00:36:05;;;;;;;18.25;10.93;;;9.10;99.90;;;;;;4983467;28;20029;-94
2022/10/15 00:38:32;;;;;;;17.92;9.55;;;9.10;99.90;;;;;;4987956;28;20029;-94
2022/10/15 00:40:58;;;;;;;17.58;10.32;;;9.10;99.90;;;;;;4995343;28;20007;-95
2022/10/15 00:43:44;;;;;;;17.13;8.82;;;9.10;99.90;;;;;;5000421;28;20093;-93
2022/10/15 00:46:49;;;;;;;19.27;9.27;;;9.10;99.90;;;;;;5000219;28;20021;-92
2022/10/15 00:49:32;;;;;;;14.65;8.82;;;9.10;99.90;;;;;;5001112;28;20081;-93
2022/10/15 00:52:09;;;;;;;20.20;9.35;;;9.10;99.90;;;;;;5000151;28;20103;-94
2022/10/15 00:55:00;;;;;;;21.92;10.60;;;9.10;99.90;;;;;;4982820;28;20027;-92
2022/10/15 00:57:32;;;;;;;19.35;9.38;;;9.10;99.90;;;;;;4990359;28;20058;-93
2022/10/15 01:00:03;;;;;;;21.90;10.70;;;9.10;99.90;;;;;;5009731;28;19999;-94
2022/10/15 01:02:29;;;;;;;19.75;10.48;;;9.10;99.90;;;;;;4989754;28;20109;-95
2022/10/15 01:04:55;;;;;;;19.38;10.38;;;9.10;99.90;;;;;;4983925;28;20061;-94
2022/10/15 01:07:20;;;;;;;18.02;10.18;;;9.20;99.90;;;;;;4980671;28;20022;-94
2022/10/15 01:09:46;;;;;;;17.45;9.70;;;9.20;99.90;;;;;;4984977;28;20050;-96
2022/10/15 01:12:41;;;;;;;16.30;9.65;;;9.20;99.90;;;;;;4983584;28;20041;-94
2022/10/15 01:15:12;;;;;;;16.88;9.50;;;9.20;99.90;;;;;;5004123;28;20041;-94
2022/10/15 01:17:41;;;;;;;16.92;8.30;;;9.20;99.90;;;;;;4987586;28;20117;-95
2022/10/15 01:20:19;;;;;;;15.65;8.77;;;9.20;99.90;;;;;;4991790;28;20038;-95
2022/10/15 01:23:13;;;;;;;15.30;9.50;;;9.20;99.90;;;;;;4989733;28;20050;-96
2022/10/15 01:26:12;;;;;;;16.35;9.35;;;9.20;99.90;;;;;;4975273;28;20036;-96
2022/10/15 01:28:57;;;;;;;15.45;8.77;;;9.20;99.90;;;;;;4978965;28;20040;-93
2022/10/15 01:31:54;;;;;;;19.17;9.27;;;9.20;99.90;;;;;;4976110;28;20014;-95
2022/10/15 01:34:42;;;;;;;13.02;8.55;;;9.20;99.90;;;;;;4950471;28;20106;-95
2022/10/15 01:37:16;;;;;;;14.70;7.43;;;9.20;99.90;;;;;;4987656;28;20038;-94
2022/10/15 01:39:53;;;;;;;15.20;8.57;;;9.20;99.90;;;;;;4990851;28;20030;-94
2022/10/15 01:42:38;;;;;;;17.48;9.85;;;9.20;99.90;;;;;;4988749;28;20015;-94
2022/10/15 01:45:21;;;;;;;14.48;9.10;;;9.20;99.90;;;;;;4994169;28;20026;-93
2022/10/15 01:47:47;;;;;;;14.50;8.90;;;9.20;99.90;;;;;;4995448;28;20103;-94
2022/10/15 01:50:15;;;;;;;20.33;10.45;;;9.20;99.90;;;;;;4987974;28;20030;-95
2022/10/15 01:52:43;;;;;;;15.52;8.90;;;9.20;99.90;;;;;;4994947;28;20053;-95
2022/10/15 01:55:12;;;;;;;13.50;8.18;;;9.20;99.90;;;;;;5012101;28;20033;-95
2022/10/15 01:57:41;;;;;;;15.20;8.73;;;9.10;99.90;;;;;;4977080;28;20018;-95
2022/10/15 02:00:08;;;;;;;14.80;8.80;;;9.10;99.90;;;;;;4995892;28;20030;-93
2022/10/15 02:02:33;;;;;;;13.90;8.15;;;9.10;99.90;;;;;;5006868;28;20139;-95
2022/10/15 02:04:59;;;;;;;13.35;8.40;;;9.10;99.90;;;;;;4989130;28;20050;-94
2022/10/15 02:07:44;;;;;;;14.32;8.35;;;9.10;99.90;;;;;;4993002;28;20114;-94
2022/10/15 02:10:31;;;;;;;17.13;9.10;;;9.10;99.90;;;;;;4987746;28;20026;-95
2022/10/15 02:13:15;;;;;;;16.75;8.93;;;9.10;99.90;;;;;;4985187;28;20057;-94
2022/10/15 02:16:05;;;;;;;15.07;9.18;;;9.10;99.90;;;;;;4982876;28;20019;-95
2022/10/15 02:18:39;;;;;;;17.95;8.80;;;9.10;99.90;;;;;;4986311;28;20031;-94
2022/10/15 02:21:27;;;;;;;14.93;8.88;;;9.20;99.90;;;;;;4984568;28;20077;-96
2022/10/15 02:24:06;;;;;;;15.68;8.80;;;9.20;99.90;;;;;;4890920;29;20052;-95
2022/10/15 02:26:34;;;;;;;16.23;9.27;;;9.20;99.90;;;;;;4874770;29;20435;-96
2022/10/15 02:29:02;;;;;;;15.88;9.13;;;9.20;99.90;;;;;;4873440;29;20057;-94
2022/10/15 02:31:30;;;;;;;14.98;8.82;;;9.20;99.90;;;;;;4874930;29;20049;-94
2022/10/15 02:34:03;;;;;;;15.20;8.88;;;9.20;99.90;;;;;;4879081;29;20115;-96
2022/10/15 02:36:29;;;;;;;17.83;9.38;;;9.20;99.90;;;;;;4892383;29;20013;-94
2022/10/15 02:38:58;;;;;;;15.00;9.07;;;9.20;99.90;;;;;;4872545;29;20029;-94
2022/10/15 02:41:26;;;;;;;13.02;8.30;;;9.20;99.90;;;;;;4867751;29;20037;-94
2022/10/15 02:43:52;;;;;;;14.30;8.18;;;9.30;99.90;;;;;;4888220;29;20017;-95
2022/10/15 02:46:19;;;;;;;9.82;6.47;;;9.20;99.90;;;;;;4887919;29;20039;-94
2022/10/15 02:48:45;;;;;;;13.50;7.53;;;9.20;99.90;;;;;;4890026;29;20051;-92
2022/10/15 02:51:10;;;;;;;19.25;8.77;;;9.30;99.90;;;;;;4887260;29;20029;-94
2022/10/15 02:53:36;;;;;;;19.05;10.45;;;9.30;99.90;;;;;;4878530;29;20047;-94
2022/10/15 02:56:02;;;;;;;16.40;9.07;;;9.30;99.90;;;;;;4873356;29;20128;-93
2022/10/15 02:58:29;;;;;;;18.30;10.20;;;9.40;99.90;;;;;;4872356;29;20056;-94
2022/10/15 03:00:55;;;;;;;18.02;10.63;;;9.50;99.90;;;;;;4926616;28;20152;-94
2022/10/15 03:03:21;;;;;;;18.15;10.30;;;9.50;99.90;;;;;;4975459;28;20117;-94
2022/10/15 03:05:46;;;;;;;16.38;9.77;;;9.50;99.90;;;;;;4975181;28;20026;-94
2022/10/15 03:08:12;;;;;;;14.07;9.07;;;9.50;99.90;;;;;;4975525;28;20034;-94
2022/10/15 03:10:38;;;;;;;13.13;8.32;;;9.50;99.90;;;;;;4975735;28;20023;-94
2022/10/15 03:13:05;;;;;;;13.02;8.65;;;9.50;99.90;;;;;;4976239;28;20034;-94
2022/10/15 03:15:31;;;;;;;14.70;8.20;;;9.50;99.90;;;;;;4977178;28;20019;-94
2022/10/15 03:17:57;;;;;;;12.10;7.40;;;9.60;99.90;;;;;;4976978;28;20022;-93
2022/10/15 03:20:22;;;;;;;13.82;7.60;;;9.60;99.90;;;;;;4977444;28;20088;-95
2022/10/15 03:22:48;;;;;;;11.52;6.78;;;9.70;99.90;;;;;;4976201;28;20022;-94
2022/10/15 03:25:14;;;;;;;10.63;6.93;;;9.80;99.90;;;;;;4976675;28;20027;-95
2022/10/15 03:27:39;;;;;;;10.90;7.05;;;9.80;99.90;;;;;;4976544;28;20038;-93
2022/10/15 03:30:06;;;;;;;11.85;6.68;;;9.90;99.90;;;;;;4978551;28;20127;-94
2022/10/15 03:32:31;;;;;;;16.88;10.10;;;9.90;99.90;;;;;;4978457;28;20113;-94
2022/10/15 03:34:57;;;;;;;15.32;8.75;;;10.00;99.90;;;;;;4979004;28;20440;-94
2022/10/15 03:37:23;;;;;;;16.27;9.27;;;9.90;99.90;;;;;;4978678;28;20071;-93
2022/10/15 03:39:48;;;;;;;12.57;7.50;;;9.90;99.90;;;;;;4978155;28;20027;-93
2022/10/15 03:42:14;;;;;;;6.90;4.80;;;10.00;99.90;;;;;;4979974;28;20388;-94
2022/10/15 03:44:40;;;;;;;8.32;5.63;;;10.00;99.90;;;;;;4978842;28;20023;-95
2022/10/15 03:47:05;;;;;;;8.20;4.55;;;10.00;99.90;;;;;;4978439;28;20034;-95
2022/10/15 03:49:31;;;;;;;7.10;4.53;;;10.00;99.90;;;;;;4978110;28;20377;-95
2022/10/15 03:51:56;;;;;;;10.43;6.60;;;10.00;99.90;;;;;;4979607;28;20040;-94
2022/10/15 03:54:22;;;;;;;9.90;6.88;;;10.00;99.90;;;;;;4978426;28;20045;-93
2022/10/15 03:56:48;;;;;;;12.73;7.13;;;10.10;99.90;;;;;;4978504;28;20049;-94
2022/10/15 03:59:13;;;;;;;9.07;5.47;;;10.10;99.90;;;;;;4977047;28;20022;-93
2022/10/15 04:01:39;;;;;;;12.32;7.32;;;10.10;99.90;;;;;;4978071;28;20037;-94
2022/10/15 04:04:05;;;;;;;11.57;6.93;;;10.10;99.90;;;;;;4978546;28;20088;-93
2022/10/15 04:06:33;;;;;;;10.93;6.32;;;10.10;99.90;;;;;;4978854;28;20029;-94
2022/10/15 04:08:59;;;;;;;9.85;5.25;;;10.10;99.90;;;;;;4978719;28;20045;-94
2022/10/15 04:11:24;;;;;;;6.53;4.50;;;10.10;99.90;;;;;;4987843;28;20018;-95
2022/10/15 04:13:50;;;;;;;7.78;4.43;;;10.10;99.90;;;;;;4983954;28;20550;-93
2022/10/15 04:16:17;;;;;;;5.28;3.50;;;10.10;99.90;;;;;;4987795;28;20019;-95
2022/10/15 04:18:43;;;;;;;5.60;3.38;;;10.10;99.90;;;;;;4987451;28;20109;-94
2022/10/15 04:21:09;;;;;;;6.80;3.47;;;10.20;99.90;;;;;;4993186;28;20073;-95
2022/10/15 04:23:34;;;;;;;9.05;4.07;;;10.20;99.90;;;;;;4987573;28;20049;-95
2022/10/15 04:26:00;;;;;;;3.97;2.85;;;10.20;99.90;;;;;;4980677;28;20112;-94
2022/10/15 04:28:27;;;;;;;6.43;2.65;;;10.20;99.90;;;;;;4985095;28;20030;-93
2022/10/15 04:30:57;;;;;;;4.88;3.00;;;10.20;99.90;;;;;;4980817;28;20423;-93
2022/10/15 04:33:23;;;;;;;3.53;2.58;;;10.30;99.90;;;;;;4963558;28;20034;-94
2022/10/15 04:36:15;;;;;;;3.55;2.88;;;10.30;99.90;;;;;;4979796;28;20391;-95
2022/10/15 04:38:41;;;;;;;4.45;2.83;;;10.30;99.90;;;;;;4989862;28;20025;-95
2022/10/15 04:41:09;;;;;;;6.15;2.92;;;10.30;99.90;;;;;;4980497;28;20030;-95
2022/10/15 04:43:35;;;;;;;3.25;2.40;;;10.30;99.90;;;;;;4977793;28;20109;-95
2022/10/15 04:46:03;;;;;;;9.68;2.75;;;10.40;99.90;;;;;;4990837;28;20113;-94
2022/10/15 04:48:31;;;;;;;3.15;2.40;;;10.40;99.90;;;;;;4979853;28;20030;-95
2022/10/15 04:51:09;;;;;;;3.78;2.40;;;10.40;99.90;;;;;;4980962;28;20041;-94
2022/10/15 04:53:35;;;;;;;5.38;3.05;;;10.40;99.90;;;;;;4992202;28;20403;-94
2022/10/15 04:56:02;;;;;;;3.90;2.13;;;10.50;99.90;;;;;;4981619;28;20141;-95
2022/10/15 04:58:29;;;;;;;5.13;2.38;;;10.50;99.90;;;;;;4980556;28;20026;-94
2022/10/15 05:01:00;;;;;;;2.88;2.25;;;10.50;99.90;;;;;;4974575;28;20471;-95
2022/10/15 05:03:25;;;;;;;6.60;2.03;;;10.50;99.90;;;;;;4965957;28;20053;-95
2022/10/15 05:05:51;;;;;;;3.83;1.90;;;10.50;99.90;;;;;;4985364;28;20053;-95
2022/10/15 05:08:16;;;;;;;4.50;1.85;;;10.50;99.90;;;;;;4991346;28;20030;-93
2022/10/15 05:10:42;;;;;;;1.98;1.75;;;10.60;99.90;;;;;;4991636;28;20083;-96
2022/10/15 05:13:08;;;;;;;1.67;1.58;;;10.60;99.90;;;;;;4987826;28;20034;-96
2022/10/15 05:15:33;;;;;;;3.95;1.42;;;10.70;99.90;;;;;;4984198;28;20018;-95
2022/10/15 05:17:59;;;;;;;2.92;1.33;;;10.70;99.90;;;;;;4981499;28;20006;-94
2022/10/15 05:20:24;;;;;;;2.33;1.23;;;10.80;99.90;;;;;;4982916;28;20471;-93
2022/10/15 05:22:50;;;;;;;4.28;1.30;;;10.70;99.90;;;;;;4983505;28;20476;-94
2022/10/15 05:25:16;;;;;;;1.38;1.27;;;10.80;99.90;;;;;;4980308;28;20018;-94
2022/10/15 05:27:41;;;;;;;2.40;1.40;;;10.80;99.90;;;;;;4982018;28;20038;-95
2022/10/15 05:30:07;;;;;;;2.20;1.25;;;10.80;99.90;;;;;;4983059;28;20026;-94
2022/10/15 05:32:33;;;;;;;2.25;1.27;;;10.80;99.90;;;;;;4979073;28;20022;-94
2022/10/15 05:34:59;;;;;;;1.05;0.90;;;10.80;99.90;;;;;;4991847;28;20034;-95
2022/10/15 05:37:24;;;;;;;2.33;1.33;;;10.80;99.90;;;;;;4984145;28;20025;-96
2022/10/15 05:39:51;;;;;;;0.95;0.95;;;10.80;99.90;;;;;;4983008;28;20052;-95
2022/10/15 05:42:17;;;;;;;1.20;0.88;;;10.80;99.90;;;;;;4988397;28;20133;-95
2022/10/15 05:44:42;;;;;;;1.20;1.10;;;10.90;99.90;;;;;;4988490;28;20031;-96
2022/10/15 05:47:10;;;;;;;1.73;1.45;;;10.80;99.90;;;;;;4993211;28;20018;-92
2022/10/15 05:49:36;;;;;;;2.33;1.60;;;10.80;99.90;;;;;;5007393;28;20031;-94
2022/10/15 05:52:05;;;;;;;1.13;0.90;;;10.80;99.90;;;;;;4990492;28;20033;-94
2022/10/15 05:54:31;;;;;;;1.77;0.90;;;10.80;99.90;;;;;;4993652;28;20038;-94
2022/10/15 05:56:56;;;;;;;3.58;0.88;;;10.80;99.90;;;;;;4985933;28;20093;-94
2022/10/15 05:59:22;;;;;;;1.67;1.00;;;10.80;99.90;;;;;;4990107;28;20121;-93
2022/10/15 06:01:48;;;;;;;2.80;1.00;;;10.70;99.90;;;;;;4995451;28;20045;-93
2022/10/15 06:04:16;;;;;;;2.33;1.20;;;10.70;99.90;;;;;;4999662;28;20018;-93
2022/10/15 06:06:42;;;;;;;1.92;1.00;;;10.60;99.90;;;;;;5000200;28;20085;-92
2022/10/15 06:09:08;;;;;;;3.63;1.00;;;10.60;99.90;;;;;;5000331;28;20165;-91
2022/10/15 06:11:35;;;;;;;1.92;0.88;;;10.60;99.90;;;;;;4998004;28;20011;-96
2022/10/15 06:14:01;;;;;;;2.72;0.73;;;10.50;99.90;;;;;;5000083;28;20026;-91
2022/10/15 06:16:26;;;;;;;3.78;1.65;;;10.50;99.90;;;;;;4998747;28;20022;-92
2022/10/15 06:18:52;;;;;;;1.90;0.75;;;10.30;99.90;;;;;;4988750;28;20030;-96
2022/10/15 06:21:18;;;;;;;4.28;1.00;;;10.40;99.90;;;;;;4986935;28;20078;-94
2022/10/15 06:23:44;;;;;;;4.22;0.65;;;10.30;99.90;;;;;;4987327;28;20029;-92
2022/10/15 06:26:10;;;;;;;6.55;1.15;;;10.30;99.90;;;;;;4983838;28;20039;-94
2022/10/15 06:28:38;;;;;;;5.32;1.23;;;10.30;99.90;;;;;;4990863;28;20074;-93
2022/10/15 06:31:05;;;;;;;6.40;1.33;;;10.20;99.90;;;;;;4987968;28;20349;-93
2022/10/15 06:33:32;;;;;;;3.10;1.20;;;10.20;99.90;;;;;;4987536;28;20054;-94
2022/10/15 06:36:09;;;;;;;2.30;1.25;;;10.10;99.90;;;;;;4976090;28;20085;-91
2022/10/15 06:38:38;;;;;;;2.17;1.08;;;10.20;99.90;;;;;;4981391;28;20062;-91
2022/10/15 06:41:05;;;;;;;4.00;1.38;;;10.10;99.90;;;;;;4989048;28;20035;-95
2022/10/15 06:43:30;;;;;;;6.05;1.40;;;10.20;99.90;;;;;;4987464;28;20015;-92
2022/10/15 06:46:00;;;;;;;2.88;1.05;;;10.20;99.90;;;;;;4994347;28;20053;-92
2022/10/15 06:48:26;;;;;;;4.35;1.23;;;10.20;99.90;;;;;;4990317;28;20047;-95
2022/10/15 06:50:53;;;;;;;1.23;1.02;;;10.20;99.90;;;;;;4988108;28;20022;-95
2022/10/15 06:53:21;;;;;;;4.40;1.10;;;10.20;99.90;;;;;;4991245;28;20090;-95
2022/10/15 06:55:47;;;;;;;1.90;1.10;;;10.20;99.90;;;;;;4995570;28;20015;-92
2022/10/15 06:58:13;;;;;;;2.30;1.13;;;10.30;99.90;;;;;;4993689;28;20027;-94
2022/10/15 07:00:38;;;;;;;2.42;1.08;;;10.30;99.90;;;;;;4984626;28;20034;-92
2022/10/15 07:03:06;;;;;;;1.42;1.10;;;10.30;99.90;;;;;;4990886;28;20037;-94
2022/10/15 07:05:32;;;;;;;1.65;0.98;;;10.30;99.90;;;;;;4992535;28;20019;-93
2022/10/15 07:07:58;;;;;;;1.50;0.90;;;10.30;99.90;;;;;;4994548;28;20038;-93
2022/10/15 07:10:25;;;;;;;6.18;1.50;;;10.30;99.90;;;;;;4993651;28;20015;-94
2022/10/15 07:12:53;;;;;;;3.42;0.90;;;10.30;99.90;;;;;;4988336;28;20025;-95
2022/10/15 07:15:20;;;;;;;4.35;0.88;;;10.30;99.90;;;;;;4989867;28;20503;-94
2022/10/15 07:17:50;;;;;;;5.32;1.08;;;10.30;99.90;;;;;;4983510;28;20030;-95
2022/10/15 07:20:17;;;;;;;4.57;1.10;;;10.30;99.90;;;;;;4970895;28;20098;-94
2022/10/15 07:22:43;;;;;;;1.40;0.82;;;10.30;99.90;;;;;;4987926;28;20039;-94
2022/10/15 07:25:10;;;;;;;5.18;0.90;;;10.30;99.90;;;;;;4986891;28;20062;-93
2022/10/15 07:27:37;;;;;;;1.95;0.80;;;10.30;99.90;;;;;;4991067;28;20034;-94
2022/10/15 07:30:04;;;;;;;1.65;0.77;;;10.30;99.90;;;;;;4983817;28;21147;-95
2022/10/15 07:32:30;;;;;;;2.40;0.77;;;10.30;99.90;;;;;;4986891;28;20053;-93
2022/10/15 07:34:56;;;;;;;6.82;2.72;;;10.40;99.90;;;;;;4978238;28;20421;-94
2022/10/15 07:37:21;;;;;;;1.17;0.68;;;10.30;99.90;;;;;;4977253;28;20051;-94
2022/10/15 07:39:48;;;;;;;3.28;1.17;;;10.40;99.90;;;;;;4982480;28;20077;-95
2022/10/15 07:42:14;;;;;;;2.05;0.63;;;10.40;99.90;;;;;;4986261;28;20023;-95
2022/10/15 07:44:39;;;;;;;1.95;0.60;;;10.40;99.90;;;;;;4981794;28;20111;-95
2022/10/15 07:47:06;;;;;;;2.78;0.93;;;10.40;99.90;;;;;;4983425;28;20038;-93
2022/10/15 07:49:32;;;;;;;5.00;0.82;;;10.40;99.90;;;;;;4992003;28;20047;-94
2022/10/15 07:51:58;;;;;;;4.40;0.60;;;10.40;99.90;;;;;;4982922;28;20003;-91
2022/10/15 07:54:24;;;;;;;4.47;0.63;;;10.40;99.90;;;;;;4974798;28;20057;-94
2022/10/15 07:56:50;;;;;;;2.70;0.63;;;10.40;99.90;;;;;;4974089;28;20034;-94
2022/10/15 07:59:15;;;;;;;3.60;0.70;;;10.40;99.90;;;;;;4982347;28;20015;-93
2022/10/15 08:01:41;;;;;;;9.00;0.80;;;10.40;99.90;;;;;;4977399;28;20042;-94
2022/10/15 08:04:07;;;;;;;5.78;0.90;;;10.40;99.90;;;;;;4987610;28;20027;-94
2022/10/15 08:06:32;;;;;;;1.35;0.47;;;10.40;99.90;;;;;;4983541;28;20495;-92
2022/10/15 08:09:00;;;;;;;8.25;0.93;;;10.30;99.90;;;;;;4979509;28;20034;-94
2022/10/15 08:11:29;;;;;;;5.68;0.77;;;10.30;99.90;;;;;;4986255;28;20022;-92
2022/10/15 08:13:56;;;;;;;2.35;0.70;;;10.30;99.90;;;;;;4979033;28;20026;-90
2022/10/15 08:16:22;;;;;;;8.68;1.92;;;10.30;99.90;;;;;;4972948;28;20035;-94
2022/10/15 08:18:48;;;;;;;2.83;1.15;;;10.30;99.90;;;;;;4987439;28;20037;-96
2022/10/15 08:21:13;;;;;;;5.35;1.02;;;10.40;99.90;;;;;;4981196;28;20046;-93
2022/10/15 08:23:39;;;;;;;3.10;0.70;;;10.40;99.90;;;;;;4976174;28;20031;-94
2022/10/15 08:26:06;;;;;;;1.23;0.57;;;10.40;99.90;;;;;;4979532;28;20031;-95
2022/10/15 08:28:33;;;;;;;13.80;1.65;;;10.40;99.90;;;;;;4985769;28;20027;-95
2022/10/15 08:31:00;;;;;;;2.88;0.60;;;10.40;99.90;;;;;;4985317;28;20399;-95
2022/10/15 08:33:28;;;;;;;3.33;0.77;;;10.50;99.90;;;;;;4981440;28;20053;-95
2022/10/15 08:35:56;;;;;;;1.02;0.60;;;10.50;99.90;;;;;;4980386;28;20141;-94
2022/10/15 08:38:25;;;;;;;1.92;0.50;;;10.60;99.90;;;;;;4969269;28;20031;-94
2022/10/15 08:40:55;;;;;;;4.05;0.90;;;10.70;99.90;;;;;;4982123;28;20505;-94
2022/10/15 08:43:38;;;;;;;3.25;0.65;;;10.80;99.90;;;;;;4981760;28;20027;-92
2022/10/15 08:46:16;;;;;;;2.53;0.57;;;10.80;99.90;;;;;;4969083;28;20093;-95
2022/10/15 08:48:48;;;;;;;6.03;0.65;;;10.90;99.90;;;;;;4969890;29;20054;-94
2022/10/15 08:51:48;;;;;;;3.35;0.65;;;10.90;99.90;;;;;;4965484;29;20480;-96
2022/10/15 08:54:23;;;;;;;1.77;0.70;;;10.90;99.90;;;;;;4970215;28;20031;-95
2022/10/15 08:57:16;;;;;;;3.70;0.90;;;10.90;99.90;;;;;;4959271;29;20481;-93
2022/10/15 09:00:03;;;;;;;3.00;0.98;;;10.90;99.90;;;;;;4975003;28;20023;-94
2022/10/15 09:02:46;;;;;;;6.00;0.80;;;10.90;99.90;;;;;;4965213;28;20736;-94
2022/10/15 09:05:31;;;;;;;4.03;0.70;;;11.00;99.90;;;;;;4979962;28;20079;-94
2022/10/15 09:08:10;;;;;;;3.75;0.63;;;11.10;99.90;;;;;;4978812;28;20061;-93
2022/10/15 09:10:50;;;;;;;3.28;0.88;;;11.10;99.90;;;;;;4977642;28;20034;-92
2022/10/15 09:13:30;;;;;;;7.63;1.27;;;11.30;99.90;;;;;;4981348;28;20022;-95
2022/10/15 09:16:01;;;;;;;6.97;0.80;;;11.40;99.90;;;;;;4978387;28;20282;-93
2022/10/15 09:18:31;;;;;;;4.45;0.82;;;11.50;99.90;;;;;;4978975;28;20472;-93
2022/10/15 09:20:58;;;;;;;4.50;0.80;;;11.70;99.90;;;;;;4977973;28;20054;-92
2022/10/15 09:23:29;;;;;;;4.70;0.77;;;11.80;99.90;;;;;;4974389;28;20863;-94
2022/10/15 09:26:18;;;;;;;8.18;1.02;;;11.90;99.90;;;;;;4972315;28;20031;-94
2022/10/15 09:28:57;;;;;;;8.32;1.48;;;12.10;99.90;;;;;;4972379;28;20038;-93
2022/10/15 09:31:29;;;;;;;7.15;1.95;;;12.20;99.90;;;;;;4971934;28;20493;-94
2022/10/15 09:34:03;;;;;;;1.95;0.40;;;12.30;99.90;;;;;;4974760;28;20050;-93
2022/10/15 09:36:47;;;;;;;5.93;1.23;;;12.50;99.90;;;;;;4976174;28;20113;-95
2022/10/15 09:39:28;;;;;;;3.55;0.70;;;12.70;99.90;;;;;;4987272;28;20062;-92
2022/10/15 09:42:03;;;;;;;7.13;1.30;;;12.90;99.90;;;;;;4975019;28;20070;-92
2022/10/15 09:44:36;;;;;;;8.00;1.35;;;13.20;99.90;;;;;;4974315;28;20031;-93
2022/10/15 09:47:21;;;;;;;3.53;0.77;;;13.30;99.90;;;;;;4975645;28;20551;-93
2022/10/15 09:49:47;;;;;;;5.57;1.00;;;13.50;99.90;;;;;;4976359;28;20038;-93
2022/10/15 09:52:44;;;;;;;5.03;0.93;;;13.60;99.90;;;;;;4977429;28;20023;-94
2022/10/15 09:55:31;;;;;;;3.22;0.60;;;13.80;99.90;;;;;;4978294;28;20046;-94
2022/10/15 09:58:05;;;;;;;7.60;0.80;;;13.90;99.90;;;;;;4964833;28;20165;-94
2022/10/15 10:00:55;;;;;;;7.22;1.10;;;14.10;99.90;;;;;;4977320;28;20495;-93
2022/10/15 10:03:24;;;;;;;4.47;0.90;;;14.30;99.90;;;;;;4977636;28;20022;-95
2022/10/15 10:05:57;;;;;;;2.53;0.90;;;14.30;99.90;;;;;;4972251;28;20074;-94
2022/10/15 10:08:26;;;;;;;5.80;1.42;;;14.40;99.90;;;;;;4965628;28;20039;-96
2022/10/15 10:11:02;;;;;;;2.65;0.93;;;14.50;99.90;;;;;;4977787;28;20583;-96
2022/10/15 10:13:45;;;;;;;6.60;1.35;;;14.60;99.90;;;;;;4974937;28;20077;-96
2022/10/15 10:16:13;;;;;;;5.32;0.82;;;14.70;99.90;;;;;;4973099;28;20062;-93
2022/10/15 10:18:39;;;;;;;2.67;0.77;;;14.80;98.90;;;;;;4973705;28;20051;-93
2022/10/15 10:21:21;;;;;;;8.35;0.85;;;14.70;98.30;;;;;;4972967;28;20058;-93
2022/10/15 10:23:47;;;;;;;3.58;0.80;;;14.70;97.20;;;;;;4965872;28;20027;-93
2022/10/15 10:26:13;;;;;;;4.78;1.17;;;14.70;96.80;;;;;;4975525;28;20066;-95
2022/10/15 10:28:54;;;;;;;10.93;1.00;;;14.70;96.50;;;;;;4969558;28;20035;-95
2022/10/15 10:31:43;;;;;;;4.60;0.90;;;14.60;96.00;;;;;;4964498;28;20042;-94
2022/10/15 10:34:15;;;;;;;2.88;0.60;;;14.50;96.00;;;;;;4966794;28;20027;-94
2022/10/15 10:36:42;;;;;;;5.57;1.00;;;14.50;96.10;;;;;;4968195;28;20045;-96
2022/10/15 10:39:28;;;;;;;4.70;1.27;;;14.40;95.40;;;;;;4983821;28;20042;-95
2022/10/15 10:42:21;;;;;;;8.13;1.27;;;14.50;95.60;;;;;;4982783;28;20043;-94
2022/10/15 10:44:47;;;;;;;6.78;1.90;;;14.50;95.50;;;;;;4976073;28;20043;-94
2022/10/15 10:47:22;;;;;;;9.98;1.02;;;14.70;95.90;;;;;;4975889;28;20148;-95
2022/10/15 10:49:53;;;;;;;4.70;1.05;;;15.00;95.80;;;;;;4973389;28;20059;-95
2022/10/15 10:52:21;;;;;;;2.95;0.80;;;15.40;95.60;;;;;;4971032;28;20019;-94
2022/10/15 10:55:18;;;;;;;3.35;0.85;;;15.60;93.40;;;;;;4974874;28;20074;-93
2022/10/15 10:57:48;;;;;;;4.30;0.90;;;15.90;92.00;;;;;;4960281;28;20031;-93
2022/10/15 11:00:24;;;;;;;3.97;0.80;;;16.00;88.00;;;;;;4966618;28;20034;-95
2022/10/15 11:02:51;;;;;;;7.30;0.80;;;16.00;87.60;;;;;;4972693;28;20077;-96
2022/10/15 11:05:33;;;;;;;2.35;0.43;;;16.10;87.10;;;;;;4966260;28;20041;-95
2022/10/15 11:08:02;;;;;;;2.45;0.68;;;16.30;86.50;;;;;;4974636;28;20031;-95
2022/10/15 11:10:56;;;;;;;3.47;0.70;;;16.40;85.60;;;;;;4970896;28;20082;-94
2022/10/15 11:13:36;;;;;;;5.07;0.85;;;16.60;83.60;;;;;;4963932;28;20626;-95
2022/10/15 11:16:27;;;;;;;4.38;0.77;;;16.60;81.90;;;;;;4969168;28;20035;-94
2022/10/15 11:19:17;;;;;;;5.80;0.77;;;16.50;81.80;;;;;;4974209;28;20077;-94
2022/10/15 11:22:14;;;;;;;4.38;0.70;;;16.30;81.60;;;;;;4966167;28;20043;-94
2022/10/15 11:25:15;;;;;;;4.57;0.90;;;16.30;81.60;;;;;;4968736;28;20030;-92
2022/10/15 11:28:25;;;;;;;;;;;;;;;;;;;;;
2022/10/15 11:31:17;;;;;;;3.78;0.70;;;16.60;82.10;;;;;;4984297;28;20500;-94
2022/10/15 11:34:21;;;;;;;7.43;1.10;;;16.30;82.00;;;;;;4976348;28;20023;-94
2022/10/15 11:37:23;;;;;;;10.27;0.90;;;16.20;82.30;;;;;;4970322;28;20030;-94
2022/10/15 11:40:14;;;;;;;3.92;0.82;;;15.90;82.90;;;;;;4970050;28;20019;-94
2022/10/15 11:43:13;;;;;;;4.97;0.88;;;15.60;83.90;;;;;;4969575;28;20039;-93
2022/10/15 11:46:15;;;;;;;7.25;1.00;;;15.50;84.90;;;;;;4968984;28;20054;-94
2022/10/15 11:48:41;;;;;;;4.65;1.45;;;15.40;85.60;;;;;;4957879;28;20051;-94
2022/10/15 11:51:19;;;;;;;4.20;1.75;;;15.40;86.30;;;;;;4969149;28;20113;-93
2022/10/15 11:54:00;;;;;;;8.18;1.02;;;15.30;86.90;;;;;;4967646;28;20031;-95
2022/10/15 11:56:33;;;;;;;10.35;1.38;;;15.30;87.80;;;;;;4975467;28;20088;-94
2022/10/15 11:59:32;;;;;;;10.07;1.60;;;15.40;88.40;;;;;;4965817;28;20062;-94
2022/10/15 12:02:20;;;;;;;9.10;1.50;;;15.60;88.90;;;;;;4966017;28;20043;-94
2022/10/15 12:05:16;;;;;;;3.65;1.00;;;16.20;89.20;;;;;;4964531;28;20030;-95
2022/10/15 12:07:50;;;;;;;6.53;1.17;;;16.90;86.90;;;;;;4968491;28;20134;-96
2022/10/15 12:10:44;;;;;;;4.88;0.95;;;17.30;84.50;;;;;;4975497;28;20062;-94
2022/10/15 12:13:28;;;;;;;4.28;0.82;;;17.50;80.80;;;;;;4964058;28;20055;-95
2022/10/15 12:16:20;;;;;;;7.03;0.90;;;17.70;77.60;;;;;;4974327;28;20031;-92
2022/10/15 12:19:23;;;;;;;10.45;0.82;;;17.60;76.90;;;;;;4977095;28;20472;-92
2022/10/15 12:21:58;;;;;;;5.88;0.80;;;17.30;76.40;;;;;;4984306;28;20046;-92
2022/10/15 12:24:49;;;;;;;6.82;1.33;;;16.80;75.90;;;;;;4978760;28;20034;-94
2022/10/15 12:27:19;;;;;;;;;;;16.30;77.90;;;;;;4971538;28;20073;-94
2022/10/15 12:29:51;;;;;;;4.67;0.60;;;16.00;79.10;;;;;;4973022;28;19946;-92
2022/10/15 12:32:48;;;;;;;3.53;0.73;;;15.70;80.00;;;;;;4984523;28;20284;-92
2022/10/15 12:35:14;;;;;;;7.00;1.45;;;15.40;81.20;;;;;;4981729;28;20022;-95
2022/10/15 12:37:48;;;;;;;4.28;0.73;;;15.10;81.60;;;;;;4997033;28;20468;-92
2022/10/15 12:40:28;;;;;;;4.28;1.67;;;15.10;83.00;;;;;;4958135;28;20019;-92
2022/10/15 12:43:10;;;;;;;9.35;1.58;;;15.40;85.00;;;;;;4968855;28;20038;-94
2022/10/15 12:45:48;;;;;;;6.75;0.93;;;16.00;84.40;;;;;;4966096;28;20015;-94
2022/10/15 12:48:13;;;;;;;2.70;0.95;;;16.50;81.80;;;;;;4973323;28;20063;-95
2022/10/15 12:50:45;;;;;;;5.32;0.90;;;17.00;80.70;;;;;;4966373;28;20026;-94
2022/10/15 12:53:41;;;;;;;2.83;0.70;;;17.30;79.00;;;;;;4974065;28;20052;-94
2022/10/15 12:56:11;;;;;;;5.90;1.02;;;17.50;77.40;;;;;;4964219;28;20104;-95
2022/10/15 12:59:05;;;;;;;8.18;1.00;;;17.70;77.30;;;;;;4972158;28;20027;-95
2022/10/15 13:02:07;;;;;;;7.65;1.38;;;17.90;76.70;;;;;;4966861;28;20026;-94
2022/10/15 13:04:54;;;;;;;3.70;0.80;;;18.10;75.00;;;;;;4971128;28;20042;-93
2022/10/15 13:07:49;;;;;;;5.47;0.82;;;18.20;73.90;;;;;;4983846;28;20029;-94
2022/10/15 13:10:29;;;;;;;2.70;0.70;;;18.20;72.80;;;;;;4980985;28;20042;-95
2022/10/15 13:13:27;;;;;;;3.35;0.65;;;18.30;72.70;;;;;;4994907;28;20035;-94
2022/10/15 13:30:18;;;;;;;1.40;0.55;;;17.10;70.80;;;;;;5924623;23;20085;-94
2022/10/15 13:32:49;;;;;;;1.48;0.47;;;16.40;73.10;;;;;;5010551;28;20472;-93